Wednesday, July 23, 2014
17:58 UTC
  |  Log In   |  Register Free
Airport Search:

Pearson Field Airport
(KVUO)

Pearson Field Airport Diagram
No Airport Diagram Available

FAA data valid effective May 29, 2014 until July 24, 2014 (unless otherwise noted).

 
 
 
 
 
 
 
 
 
 
 
 
 
 

Current Aviation Weather for Pearson Field Airport (KVUO)

The most recent METAR observation for KVUO was updated at: 1653 UTC
METAR Summary (Translated METAR)
KVUO
231653Z AUTO 12007KT 10SM -RA BKN014 BKN021 OVC032 15/13 A3004 RMK AO2 SLP171 P0004 T01500133
KPDX
(3.1 nm SE from KVUO)
231653Z 17009KT 10SM -RA FEW013 SCT020 OVC032 15/14 A3004 RMK AO2 SLP171 P0004 T01500139
TAF Summary (Translated TAF)
KPDX
(3.1 nm SE from KVUO)
231619Z 2316/2412 18010KT P6SM -RA BKN025 OVC040 FM231800 22010G18KT P6SM VCSH BKN025 BKN040 FM240500 19009KT P6SM OVC050
KTTD
(11.5 nm SE from KVUO)
231140Z 2312/2412 VRB04KT P6SM VCSH SCT020 OVC050 FM231300 15003KT P6SM -RA BKN020 OVC040 TEMPO 2313/2317 5SM RA OVC020 FM232100 20010G18KT P6SM -SHRA BKN025 BKN040
  Airport Weather Conditions for KVUO

 Current Weather at VUO
59° F
Light Rain
Southeast winds at 8.1 mph
VUO NOAA Radar

Pressure: 30.04 in
Humidity: 90%
Wind: Southeast at 8.1 MPH (7 KT)
Dew Point: 55.9°F
Visibility: 10.00 mi


Airport Weather Forecast for KVUO

Translated METAR and TAF for KVUO
Translated METAR for KVUO (1751 UTC 23 July 2014)
found at http://aviationweather.gov/adds/metars/
 
METAR text: KVUO 231653Z AUTO 12007KT 10SM -RA BKN014 BKN021 OVC032 15/13 A3004 RMK AO2 SLP171 P0004 T01500133
Conditions at: KVUO (VANCOUVER , WA, US) observed 1653 UTC 23 July 2014
Temperature: 15.0°C (59°F)
Dewpoint: 13.3°C (56°F) [RH = 90%]
Pressure (altimeter): 30.04 inches Hg (1017.4 mb)
[Sea-level pressure: 1017.1 mb]
Winds: from the ESE (120 degrees) at 8 MPH (7 knots; 3.6 m/s)
Visibility: 10 or more miles (16+ km)
Ceiling: 1400 feet AGL
Clouds: broken clouds at 1400 feet AGL
broken clouds at 2100 feet AGL
overcast cloud deck at 3200 feet AGL
Weather: -RA  (light rain)
Translated TAF for KVUO

There is no translated TAF available for this airport

Find All Airport Services Find A Hotel Find A Rental Car Find A Golf Course Find A Restaurant $100 Hamburger



FBO's on the Field
FBO Company Facility Photos Services Transportation Aviation Fuel Prices: Prices include tax
Catering Weather Repair Courtesy Rental Type 100LL JetA JetA+ MOGAS 8087
 
Aero Maintenance Inc

This FBO has not yet been rated
FS:AirBP
Last Updated: Jul-09
Login to update fuel prices
SS:
Contact Aero Maintenance IncMore FBO Information
 
Add another FBO Facility Photos Catering Weather Repair Courtesy Rental Type 100LL JetA JetA+ MOGAS 8087
Services Transportation Aviation Fuel Prices: Prices include tax


GlobalAir.com Airport Resource Center model-print
model-print
model-print
model-print